sensor_id;sensor_type;location;lat;lon;timestamp;pressure;altitude;pressure_sealevel;temperature;humidity
11525;BME280;5819;49.648;8.330;2023-04-19T00:00:03;101138.59;;;10.84;94.28
11525;BME280;5819;49.648;8.330;2023-04-19T00:02:35;101139.06;;;10.69;95.53
11525;BME280;5819;49.648;8.330;2023-04-19T00:05:06;101139.94;;;10.68;95.74
11525;BME280;5819;49.648;8.330;2023-04-19T00:07:34;101136.78;;;10.58;97.05
11525;BME280;5819;49.648;8.330;2023-04-19T00:10:03;101133.22;;;10.61;96.93
11525;BME280;5819;49.648;8.330;2023-04-19T00:12:31;101128.78;;;10.64;95.82
11525;BME280;5819;49.648;8.330;2023-04-19T00:14:59;101126.28;;;10.61;95.81
11525;BME280;5819;49.648;8.330;2023-04-19T00:17:27;101122.91;;;10.58;97.00
11525;BME280;5819;49.648;8.330;2023-04-19T00:19:55;101126.75;;;10.74;95.70
11525;BME280;5819;49.648;8.330;2023-04-19T00:22:24;101130.09;;;10.79;95.21
11525;BME280;5819;49.648;8.330;2023-04-19T00:24:52;101122.69;;;10.65;95.74
11525;BME280;5819;49.648;8.330;2023-04-19T00:27:21;101125.31;;;10.64;96.16
11525;BME280;5819;49.648;8.330;2023-04-19T00:29:49;101122.81;;;10.61;96.75
11525;BME280;5819;49.648;8.330;2023-04-19T00:32:16;101121.84;;;10.65;96.97
11525;BME280;5819;49.648;8.330;2023-04-19T00:34:44;101118.88;;;10.75;95.87
11525;BME280;5819;49.648;8.330;2023-04-19T00:37:12;101124.63;;;10.59;96.87
11525;BME280;5819;49.648;8.330;2023-04-19T00:39:41;101120.59;;;10.76;95.16
11525;BME280;5819;49.648;8.330;2023-04-19T00:42:09;101114.78;;;10.68;94.50
11525;BME280;5819;49.648;8.330;2023-04-19T00:44:38;101119.38;;;10.60;96.09
11525;BME280;5819;49.648;8.330;2023-04-19T00:47:05;101115.34;;;10.50;96.56
11525;BME280;5819;49.648;8.330;2023-04-19T00:49:33;101123.72;;;10.60;97.19
11525;BME280;5819;49.648;8.330;2023-04-19T00:52:01;101117.13;;;10.48;97.44
11525;BME280;5819;49.648;8.330;2023-04-19T00:54:30;101118.03;;;10.47;97.04
11525;BME280;5819;49.648;8.330;2023-04-19T00:56:59;101120.41;;;10.55;96.97
11525;BME280;5819;49.648;8.330;2023-04-19T00:59:27;101124.16;;;10.46;97.17
11525;BME280;5819;49.648;8.330;2023-04-19T01:01:55;101123.19;;;10.49;96.89
11525;BME280;5819;49.648;8.330;2023-04-19T01:04:24;101121.53;;;10.46;96.87
11525;BME280;5819;49.648;8.330;2023-04-19T01:06:52;101113.88;;;10.42;97.14
11525;BME280;5819;49.648;8.330;2023-04-19T01:09:20;101112.44;;;10.59;95.52
11525;BME280;5819;49.648;8.330;2023-04-19T01:11:49;101115.97;;;10.58;95.99
11525;BME280;5819;49.648;8.330;2023-04-19T01:14:18;101109.94;;;10.56;96.49
11525;BME280;5819;49.648;8.330;2023-04-19T01:16:46;101108.09;;;10.60;95.85
11525;BME280;5819;49.648;8.330;2023-04-19T01:19:14;101107.31;;;10.58;94.93
11525;BME280;5819;49.648;8.330;2023-04-19T01:21:42;101100.75;;;10.45;96.29
11525;BME280;5819;49.648;8.330;2023-04-19T01:24:13;101099.66;;;10.53;95.56
11525;BME280;5819;49.648;8.330;2023-04-19T01:26:41;101099.69;;;10.52;96.21
11525;BME280;5819;49.648;8.330;2023-04-19T01:29:09;101097.94;;;10.52;95.61
11525;BME280;5819;49.648;8.330;2023-04-19T01:31:37;101097.78;;;10.57;94.92
11525;BME280;5819;49.648;8.330;2023-04-19T01:34:05;101094.59;;;10.47;97.00
11525;BME280;5819;49.648;8.330;2023-04-19T01:36:33;101090.47;;;10.42;97.63
11525;BME280;5819;49.648;8.330;2023-04-19T01:39:01;101082.75;;;10.39;98.03
11525;BME280;5819;49.648;8.330;2023-04-19T01:41:30;101085.13;;;10.46;97.80
11525;BME280;5819;49.648;8.330;2023-04-19T01:43:58;101087.09;;;10.38;97.98
11525;BME280;5819;49.648;8.330;2023-04-19T01:46:27;101082.91;;;10.34;98.82
11525;BME280;5819;49.648;8.330;2023-04-19T01:48:55;101077.31;;;10.46;97.43
11525;BME280;5819;49.648;8.330;2023-04-19T01:51:24;101078.22;;;10.45;96.58
11525;BME280;5819;49.648;8.330;2023-04-19T01:53:53;101085.53;;;10.32;98.48
11525;BME280;5819;49.648;8.330;2023-04-19T01:56:22;101078.53;;;10.35;98.17
11525;BME280;5819;49.648;8.330;2023-04-19T01:58:51;101074.22;;;10.33;98.49
11525;BME280;5819;49.648;8.330;2023-04-19T02:01:20;101074.22;;;10.33;98.59
11525;BME280;5819;49.648;8.330;2023-04-19T02:03:50;101072.63;;;10.29;99.09
11525;BME280;5819;49.648;8.330;2023-04-19T02:06:19;101067.31;;;10.32;99.19
11525;BME280;5819;49.648;8.330;2023-04-19T02:08:49;101070.69;;;10.36;98.26
11525;BME280;5819;49.648;8.330;2023-04-19T02:11:17;101066.59;;;10.27;99.25
11525;BME280;5819;49.648;8.330;2023-04-19T02:13:46;101062.00;;;10.37;98.42
11525;BME280;5819;49.648;8.330;2023-04-19T02:16:15;101059.72;;;10.26;99.19
11525;BME280;5819;49.648;8.330;2023-04-19T02:18:43;101056.19;;;10.57;98.03
11525;BME280;5819;49.648;8.330;2023-04-19T02:21:12;101050.81;;;10.35;97.85
11525;BME280;5819;49.648;8.330;2023-04-19T02:23:40;101050.72;;;10.37;98.78
11525;BME280;5819;49.648;8.330;2023-04-19T02:26:09;101053.44;;;10.33;98.40
11525;BME280;5819;49.648;8.330;2023-04-19T02:28:41;101046.41;;;10.36;98.64
11525;BME280;5819;49.648;8.330;2023-04-19T02:31:11;101043.19;;;10.27;99.81
11525;BME280;5819;49.648;8.330;2023-04-19T02:33:40;101045.72;;;10.30;99.74
11525;BME280;5819;49.648;8.330;2023-04-19T02:36:08;101042.22;;;10.31;99.42
11525;BME280;5819;49.648;8.330;2023-04-19T02:38:37;101044.13;;;10.26;100.00
11525;BME280;5819;49.648;8.330;2023-04-19T02:41:05;101042.56;;;10.19;100.00
11525;BME280;5819;49.648;8.330;2023-04-19T02:43:33;101033.78;;;10.23;100.00
11525;BME280;5819;49.648;8.330;2023-04-19T02:46:00;101036.38;;;10.23;100.00
11525;BME280;5819;49.648;8.330;2023-04-19T02:48:28;101033.78;;;10.23;100.00
11525;BME280;5819;49.648;8.330;2023-04-19T02:50:58;101036.38;;;10.23;100.00
11525;BME280;5819;49.648;8.330;2023-04-19T02:53:26;101043.53;;;10.17;100.00
11525;BME280;5819;49.648;8.330;2023-04-19T02:55:55;101040.81;;;10.20;100.00
11525;BME280;5819;49.648;8.330;2023-04-19T02:58:23;101047.59;;;10.25;100.00
11525;BME280;5819;49.648;8.330;2023-04-19T03:01:04;101043.78;;;10.37;99.58
11525;BME280;5819;49.648;8.330;2023-04-19T03:03:32;101044.03;;;10.29;99.50
11525;BME280;5819;49.648;8.330;2023-04-19T03:06:02;101046.63;;;10.29;99.29
11525;BME280;5819;49.648;8.330;2023-04-19T03:08:31;101044.03;;;10.29;99.54
11525;BME280;5819;49.648;8.330;2023-04-19T03:10:59;101038.69;;;10.34;99.36
11525;BME280;5819;49.648;8.330;2023-04-19T03:13:29;101030.81;;;10.36;99.88
11525;BME280;5819;49.648;8.330;2023-04-19T03:15:58;101032.63;;;10.33;99.50
11525;BME280;5819;49.648;8.330;2023-04-19T03:18:29;101027.69;;;10.24;100.00
11525;BME280;5819;49.648;8.330;2023-04-19T03:20:58;101029.41;;;10.25;100.00
11525;BME280;5819;49.648;8.330;2023-04-19T03:23:34;101024.94;;;10.30;99.87
11525;BME280;5819;49.648;8.330;2023-04-19T03:26:02;101027.06;;;10.16;100.00
11525;BME280;5819;49.648;8.330;2023-04-19T03:28:38;101028.75;;;10.19;100.00
11525;BME280;5819;49.648;8.330;2023-04-19T03:31:09;101028.53;;;10.26;100.00
11525;BME280;5819;49.648;8.330;2023-04-19T03:33:38;101022.69;;;10.18;100.00
11525;BME280;5819;49.648;8.330;2023-04-19T03:36:08;101022.75;;;10.15;100.00
11525;BME280;5819;49.648;8.330;2023-04-19T03:38:38;101021.19;;;10.10;100.00
11525;BME280;5819;49.648;8.330;2023-04-19T03:41:18;101014.94;;;10.17;100.00
11525;BME280;5819;49.648;8.330;2023-04-19T03:43:49;101014.78;;;10.21;100.00
11525;BME280;5819;49.648;8.330;2023-04-19T03:46:17;101014.28;;;10.09;100.00
11525;BME280;5819;49.648;8.330;2023-04-19T03:48:46;101011.06;;;10.01;100.00
11525;BME280;5819;49.648;8.330;2023-04-19T03:51:14;101009.31;;;10.01;100.00
11525;BME280;5819;49.648;8.330;2023-04-19T03:53:44;101009.28;;;10.03;100.00
11525;BME280;5819;49.648;8.330;2023-04-19T03:56:16;101005.97;;;9.96;100.00
11525;BME280;5819;49.648;8.330;2023-04-19T03:58:45;101006.84;;;9.97;100.00
11525;BME280;5819;49.648;8.330;2023-04-19T04:01:17;101002.75;;;9.88;100.00
11525;BME280;5819;49.648;8.330;2023-04-19T04:03:45;101015.03;;;9.83;100.00
11525;BME280;5819;49.648;8.330;2023-04-19T04:06:13;101016.50;;;9.92;100.00
11525;BME280;5819;49.648;8.330;2023-04-19T04:08:42;101013.38;;;10.10;100.00
11525;BME280;5819;49.648;8.330;2023-04-19T04:11:11;101009.41;;;9.98;100.00
11525;BME280;5819;49.648;8.330;2023-04-19T04:13:40;101009.31;;;10.01;100.00
11525;BME280;5819;49.648;8.330;2023-04-19T04:16:16;101017.81;;;10.06;100.00
11525;BME280;5819;49.648;8.330;2023-04-19T04:18:45;101017.25;;;9.97;100.00
11525;BME280;5819;49.648;8.330;2023-04-19T04:21:14;101020.22;;;9.83;100.00
11525;BME280;5819;49.648;8.330;2023-04-19T04:23:45;101019.84;;;9.97;100.00
11525;BME280;5819;49.648;8.330;2023-04-19T04:26:29;101012.66;;;10.05;100.00
11525;BME280;5819;49.648;8.330;2023-04-19T04:29:16;101022.63;;;9.91;100.00
11525;BME280;5819;49.648;8.330;2023-04-19T04:31:45;101019.19;;;9.88;100.00
11525;BME280;5819;49.648;8.330;2023-04-19T04:34:16;101020.66;;;9.99;100.00
11525;BME280;5819;49.648;8.330;2023-04-19T04:36:50;101021.84;;;9.87;100.00
11525;BME280;5819;49.648;8.330;2023-04-19T04:39:22;101024.25;;;9.95;100.00
11525;BME280;5819;49.648;8.330;2023-04-19T04:41:51;101018.25;;;9.91;100.00
11525;BME280;5819;49.648;8.330;2023-04-19T04:44:19;101016.16;;;10.04;100.00
11525;BME280;5819;49.648;8.330;2023-04-19T04:46:48;101030.25;;;9.95;100.00
11525;BME280;5819;49.648;8.330;2023-04-19T04:49:22;101019.94;;;9.94;100.00
11525;BME280;5819;49.648;8.330;2023-04-19T04:51:49;101028.66;;;9.91;100.00
11525;BME280;5819;49.648;8.330;2023-04-19T04:54:19;101023.41;;;9.93;100.00
11525;BME280;5819;49.648;8.330;2023-04-19T04:56:47;101023.25;;;9.99;100.00
11525;BME280;5819;49.648;8.330;2023-04-19T04:59:17;101030.06;;;10.03;100.00
11525;BME280;5819;49.648;8.330;2023-04-19T05:01:47;101024.69;;;10.09;100.00
11525;BME280;5819;49.648;8.330;2023-04-19T05:04:16;101023.91;;;10.05;100.00
11525;BME280;5819;49.648;8.330;2023-04-19T05:06:44;101028.22;;;10.06;100.00
11525;BME280;5819;49.648;8.330;2023-04-19T05:09:19;101020.56;;;10.02;100.00
11525;BME280;5819;49.648;8.330;2023-04-19T05:11:47;101022.22;;;10.04;100.00
11525;BME280;5819;49.648;8.330;2023-04-19T05:14:17;101022.16;;;10.06;100.00
11525;BME280;5819;49.648;8.330;2023-04-19T05:16:44;101016.84;;;10.10;100.00
11525;BME280;5819;49.648;8.330;2023-04-19T05:19:12;101019.09;;;10.22;100.00
11525;BME280;5819;49.648;8.330;2023-04-19T05:21:47;101018.97;;;10.27;100.00
11525;BME280;5819;49.648;8.330;2023-04-19T05:24:15;101019.53;;;10.37;100.00
11525;BME280;5819;49.648;8.330;2023-04-19T05:26:45;101026.78;;;10.27;100.00
11525;BME280;5819;49.648;8.330;2023-04-19T05:29:13;101014.47;;;10.32;100.00
11525;BME280;5819;49.648;8.330;2023-04-19T05:31:49;101014.94;;;10.45;100.00
11525;BME280;5819;49.648;8.330;2023-04-19T05:34:21;101017.81;;;10.36;100.00
11525;BME280;5819;49.648;8.330;2023-04-19T05:36:51;101020.38;;;10.37;100.00
11525;BME280;5819;49.648;8.330;2023-04-19T05:39:19;101017.56;;;10.43;100.00
11525;BME280;5819;49.648;8.330;2023-04-19T05:41:47;101016.28;;;10.56;100.00
11525;BME280;5819;49.648;8.330;2023-04-19T05:44:15;101016.88;;;10.66;100.00
11525;BME280;5819;49.648;8.330;2023-04-19T05:46:44;101019.38;;;10.69;100.00
11525;BME280;5819;49.648;8.330;2023-04-19T05:49:20;101012.41;;;10.69;100.00
11525;BME280;5819;49.648;8.330;2023-04-19T05:52:04;101016.84;;;10.92;100.00
11525;BME280;5819;49.648;8.330;2023-04-19T05:54:42;101010.16;;;10.85;100.00
11525;BME280;5819;49.648;8.330;2023-04-19T05:57:10;101012.75;;;10.85;100.00
11525;BME280;5819;49.648;8.330;2023-04-19T05:59:38;101013.97;;;10.75;100.00
11525;BME280;5819;49.648;8.330;2023-04-19T06:02:08;101009.31;;;10.85;100.00
11525;BME280;5819;49.648;8.330;2023-04-19T06:04:37;101004.41;;;11.02;100.00
11525;BME280;5819;49.648;8.330;2023-04-19T06:07:06;101006.91;;;10.78;100.00
11525;BME280;5819;49.648;8.330;2023-04-19T06:09:54;101013.28;;;10.70;100.00
11525;BME280;5819;49.648;8.330;2023-04-19T06:12:21;101014.16;;;10.69;100.00
11525;BME280;5819;49.648;8.330;2023-04-19T06:14:51;101012.53;;;10.66;100.00
11525;BME280;5819;49.648;8.330;2023-04-19T06:17:20;101018.56;;;10.67;100.00
11525;BME280;5819;49.648;8.330;2023-04-19T06:19:53;101011.56;;;10.69;100.00
11525;BME280;5819;49.648;8.330;2023-04-19T06:22:23;101008.72;;;10.76;100.00
11525;BME280;5819;49.648;8.330;2023-04-19T06:24:51;101007.44;;;10.88;100.00
11525;BME280;5819;49.648;8.330;2023-04-19T06:27:19;101011.41;;;11.00;100.00
11525;BME280;5819;49.648;8.330;2023-04-19T06:29:47;101011.13;;;11.07;100.00
11525;BME280;5819;49.648;8.330;2023-04-19T06:32:17;101007.31;;;11.17;100.00
11525;BME280;5819;49.648;8.330;2023-04-19T06:34:45;101007.38;;;11.16;100.00
11525;BME280;5819;49.648;8.330;2023-04-19T06:37:14;101010.78;;;11.18;100.00
11525;BME280;5819;49.648;8.330;2023-04-19T06:39:42;101006.59;;;11.14;100.00
11525;BME280;5819;49.648;8.330;2023-04-19T06:42:10;101008.09;;;11.19;100.00
11525;BME280;5819;49.648;8.330;2023-04-19T06:44:38;101009.94;;;11.17;100.00
11525;BME280;5819;49.648;8.330;2023-04-19T06:47:06;101014.59;;;11.33;100.00
11525;BME280;5819;49.648;8.330;2023-04-19T06:49:34;101014.69;;;11.31;100.00
11525;BME280;5819;49.648;8.330;2023-04-19T06:52:01;101010.13;;;11.36;100.00
11525;BME280;5819;49.648;8.330;2023-04-19T06:54:31;101007.38;;;11.16;100.00
11525;BME280;5819;49.648;8.330;2023-04-19T06:56:59;101011.56;;;11.45;100.00
11525;BME280;5819;49.648;8.330;2023-04-19T06:59:27;101008.03;;;11.47;100.00
11525;BME280;5819;49.648;8.330;2023-04-19T07:01:57;101005.66;;;11.64;100.00
11525;BME280;5819;49.648;8.330;2023-04-19T07:04:25;101008.25;;;11.89;100.00
11525;BME280;5819;49.648;8.330;2023-04-19T07:06:53;101002.59;;;11.78;100.00
11525;BME280;5819;49.648;8.330;2023-04-19T07:09:22;101002.25;;;11.87;100.00
11525;BME280;5819;49.648;8.330;2023-04-19T07:11:51;101000.13;;;11.73;100.00
11525;BME280;5819;49.648;8.330;2023-04-19T07:14:19;100994.53;;;11.84;100.00
11525;BME280;5819;49.648;8.330;2023-04-19T07:16:47;100998.50;;;12.16;100.00
11525;BME280;5819;49.648;8.330;2023-04-19T07:19:18;101000.75;;;12.68;99.28
11525;BME280;5819;49.648;8.330;2023-04-19T07:21:46;100980.28;;;13.22;95.15
11525;BME280;5819;49.648;8.330;2023-04-19T07:24:14;100973.72;;;13.52;94.05
11525;BME280;5819;49.648;8.330;2023-04-19T07:26:43;100983.84;;;13.59;91.41
11525;BME280;5819;49.648;8.330;2023-04-19T07:29:12;100977.59;;;13.43;91.05
11525;BME280;5819;49.648;8.330;2023-04-19T07:31:40;100990.44;;;12.87;92.24
11525;BME280;5819;49.648;8.330;2023-04-19T07:34:08;100981.59;;;12.48;94.31
11525;BME280;5819;49.648;8.330;2023-04-19T07:36:36;100995.44;;;12.28;97.05
11525;BME280;5819;49.648;8.330;2023-04-19T07:39:04;100979.78;;;12.06;98.62
11525;BME280;5819;49.648;8.330;2023-04-19T07:41:32;100986.78;;;12.04;98.41
11525;BME280;5819;49.648;8.330;2023-04-19T07:44:01;100989.78;;;12.17;97.41
11525;BME280;5819;49.648;8.330;2023-04-19T07:46:30;100987.09;;;11.97;99.32
11525;BME280;5819;49.648;8.330;2023-04-19T07:48:58;100977.59;;;12.17;98.24
11525;BME280;5819;49.648;8.330;2023-04-19T07:51:26;100983.75;;;11.93;100.00
11525;BME280;5819;49.648;8.330;2023-04-19T07:53:54;100992.53;;;12.14;99.52
11525;BME280;5819;49.648;8.330;2023-04-19T07:56:22;100994.13;;;11.95;100.00
11525;BME280;5819;49.648;8.330;2023-04-19T07:58:51;100989.22;;;11.87;100.00
11525;BME280;5819;49.648;8.330;2023-04-19T08:01:35;100983.03;;;11.90;100.00
11525;BME280;5819;49.648;8.330;2023-04-19T08:04:04;100978.38;;;11.98;99.48
11525;BME280;5819;49.648;8.330;2023-04-19T08:06:32;100985.94;;;12.04;99.07
11525;BME280;5819;49.648;8.330;2023-04-19T08:09:00;100976.53;;;12.00;100.00
11525;BME280;5819;49.648;8.330;2023-04-19T08:11:28;100983.81;;;11.92;100.00
11525;BME280;5819;49.648;8.330;2023-04-19T08:13:56;100980.56;;;12.08;98.14
11525;BME280;5819;49.648;8.330;2023-04-19T08:16:38;100974.00;;;11.98;98.61
11525;BME280;5819;49.648;8.330;2023-04-19T08:19:26;100970.66;;;11.95;98.97
11525;BME280;5819;49.648;8.330;2023-04-19T08:21:54;100975.16;;;11.91;100.00
11525;BME280;5819;49.648;8.330;2023-04-19T08:24:23;100972.09;;;12.03;99.66
11525;BME280;5819;49.648;8.330;2023-04-19T08:26:52;100968.66;;;12.01;98.47
11525;BME280;5819;49.648;8.330;2023-04-19T08:29:20;100970.25;;;12.05;98.20
11525;BME280;5819;49.648;8.330;2023-04-19T08:31:50;100965.00;;;12.07;98.96
11525;BME280;5819;49.648;8.330;2023-04-19T08:34:18;100961.91;;;12.19;99.10
11525;BME280;5819;49.648;8.330;2023-04-19T08:36:46;100963.31;;;12.28;96.31
11525;BME280;5819;49.648;8.330;2023-04-19T08:39:26;100969.09;;;12.12;95.91
11525;BME280;5819;49.648;8.330;2023-04-19T08:42:00;100964.38;;;12.22;95.82
11525;BME280;5819;49.648;8.330;2023-04-19T08:44:38;100964.25;;;12.25;95.40
11525;BME280;5819;49.648;8.330;2023-04-19T08:47:28;100951.22;;;12.25;95.88
11525;BME280;5819;49.648;8.330;2023-04-19T08:50:03;100962.44;;;12.27;94.33
11525;BME280;5819;49.648;8.330;2023-04-19T08:52:51;100949.91;;;12.57;92.50
11525;BME280;5819;49.648;8.330;2023-04-19T08:55:27;100946.22;;;12.41;94.09
11525;BME280;5819;49.648;8.330;2023-04-19T08:57:55;100948.66;;;12.45;93.16
11525;BME280;5819;49.648;8.330;2023-04-19T09:00:23;100946.34;;;12.59;90.67
11525;BME280;5819;49.648;8.330;2023-04-19T09:02:52;100951.34;;;12.64;89.73
11525;BME280;5819;49.648;8.330;2023-04-19T09:05:22;100941.66;;;12.68;89.85
11525;BME280;5819;49.648;8.330;2023-04-19T09:07:50;100940.88;;;12.86;87.30
11525;BME280;5819;49.648;8.330;2023-04-19T09:10:19;100938.31;;;12.84;87.96
11525;BME280;5819;49.648;8.330;2023-04-19T09:13:01;100941.72;;;12.86;87.28
11525;BME280;5819;49.648;8.330;2023-04-19T09:15:37;100940.34;;;12.78;85.91
11525;BME280;5819;49.648;8.330;2023-04-19T09:18:08;100932.56;;;12.76;86.09
11525;BME280;5819;49.648;8.330;2023-04-19T09:20:37;100930.44;;;12.86;86.67
11525;BME280;5819;49.648;8.330;2023-04-19T09:23:07;100931.41;;;12.63;86.67
11525;BME280;5819;49.648;8.330;2023-04-19T09:25:37;100931.09;;;12.71;86.31
11525;BME280;5819;49.648;8.330;2023-04-19T09:28:27;100927.34;;;12.76;88.11
11525;BME280;5819;49.648;8.330;2023-04-19T09:30:55;100917.38;;;13.06;88.56
11525;BME280;5819;49.648;8.330;2023-04-19T09:33:42;100925.72;;;12.94;88.00
11525;BME280;5819;49.648;8.330;2023-04-19T09:36:25;100920.03;;;12.84;87.88
11525;BME280;5819;49.648;8.330;2023-04-19T09:38:53;100922.78;;;12.81;89.19
11525;BME280;5819;49.648;8.330;2023-04-19T09:41:21;100919.00;;;12.88;89.02
11525;BME280;5819;49.648;8.330;2023-04-19T09:43:49;100924.34;;;12.85;88.00
11525;BME280;5819;49.648;8.330;2023-04-19T09:46:30;100921.38;;;12.94;87.63
11525;BME280;5819;49.648;8.330;2023-04-19T09:49:17;100908.75;;;13.04;86.25
11525;BME280;5819;49.648;8.330;2023-04-19T09:52:06;100906.22;;;13.23;85.11
11525;BME280;5819;49.648;8.330;2023-04-19T09:54:36;100906.22;;;13.23;84.57
11525;BME280;5819;49.648;8.330;2023-04-19T09:57:04;100893.25;;;13.40;85.25
11525;BME280;5819;49.648;8.330;2023-04-19T09:59:32;100891.63;;;13.75;83.34
11525;BME280;5819;49.648;8.330;2023-04-19T10:02:01;100896.47;;;14.01;80.51
11525;BME280;5819;49.648;8.330;2023-04-19T10:04:34;100888.53;;;14.02;80.32
11525;BME280;5819;49.648;8.330;2023-04-19T10:07:23;100893.72;;;13.85;81.03
11525;BME280;5819;49.648;8.330;2023-04-19T10:09:57;100895.00;;;13.95;80.44
11525;BME280;5819;49.648;8.330;2023-04-19T10:12:30;100891.56;;;13.39;81.09
11525;BME280;5819;49.648;8.330;2023-04-19T10:15:02;100895.38;;;13.32;83.80
11525;BME280;5819;49.648;8.330;2023-04-19T10:17:31;100892.66;;;13.33;81.91
11525;BME280;5819;49.648;8.330;2023-04-19T10:20:04;100884.56;;;13.39;83.07
11525;BME280;5819;49.648;8.330;2023-04-19T10:22:34;100879.34;;;13.58;83.33
11525;BME280;5819;49.648;8.330;2023-04-19T10:25:07;100873.09;;;13.79;80.32
11525;BME280;5819;49.648;8.330;2023-04-19T10:27:36;100871.00;;;14.04;79.60
11525;BME280;5819;49.648;8.330;2023-04-19T10:30:04;100866.75;;;14.38;78.03
11525;BME280;5819;49.648;8.330;2023-04-19T10:32:39;100871.16;;;14.55;76.41
11525;BME280;5819;49.648;8.330;2023-04-19T10:35:10;100865.25;;;14.32;76.17
11525;BME280;5819;49.648;8.330;2023-04-19T10:38:01;100859.00;;;15.04;78.51
11525;BME280;5819;49.648;8.330;2023-04-19T10:40:56;100851.25;;;15.51;72.68
11525;BME280;5819;49.648;8.330;2023-04-19T10:43:27;100841.13;;;15.12;73.39
11525;BME280;5819;49.648;8.330;2023-04-19T10:45:58;100844.53;;;14.96;71.14
11525;BME280;5819;49.648;8.330;2023-04-19T10:48:34;100839.41;;;14.78;72.76
11525;BME280;5819;49.648;8.330;2023-04-19T10:51:11;100847.66;;;14.87;72.42
11525;BME280;5819;49.648;8.330;2023-04-19T10:56:58;100830.66;;;14.44;74.08
11525;BME280;5819;49.648;8.330;2023-04-19T10:59:31;100826.25;;;14.45;74.32
11525;BME280;5819;49.648;8.330;2023-04-19T11:02:00;100819.25;;;14.63;75.04
11525;BME280;5819;49.648;8.330;2023-04-19T11:04:57;100817.13;;;14.86;74.07
11525;BME280;5819;49.648;8.330;2023-04-19T11:07:53;100805.53;;;15.08;70.52
11525;BME280;5819;49.648;8.330;2023-04-19T11:10:29;100790.31;;;15.45;71.35
11525;BME280;5819;49.648;8.330;2023-04-19T11:12:57;100789.31;;;15.32;71.91
11525;BME280;5819;49.648;8.330;2023-04-19T11:15:25;100779.09;;;15.59;69.49
11525;BME280;5819;49.648;8.330;2023-04-19T11:17:53;100784.06;;;15.48;69.08
11525;BME280;5819;49.648;8.330;2023-04-19T11:20:37;100767.47;;;15.79;69.48
11525;BME280;5819;49.648;8.330;2023-04-19T11:23:16;100769.00;;;15.67;69.32
11525;BME280;5819;49.648;8.330;2023-04-19T11:25:44;100765.72;;;15.48;67.84
11525;BME280;5819;49.648;8.330;2023-04-19T11:28:14;100761.72;;;15.41;68.39
11525;BME280;5819;49.648;8.330;2023-04-19T11:30:44;100758.00;;;15.61;66.56
11525;BME280;5819;49.648;8.330;2023-04-19T11:33:13;100755.13;;;15.65;65.66
11525;BME280;5819;49.648;8.330;2023-04-19T11:35:42;100755.00;;;15.53;66.75
11525;BME280;5819;49.648;8.330;2023-04-19T11:38:11;100756.84;;;15.35;64.53
11525;BME280;5819;49.648;8.330;2023-04-19T11:40:41;100745.19;;;15.56;61.31
11525;BME280;5819;49.648;8.330;2023-04-19T11:43:09;100750.47;;;15.70;61.08
11525;BME280;5819;49.648;8.330;2023-04-19T11:45:37;100739.66;;;15.76;58.51
11525;BME280;5819;49.648;8.330;2023-04-19T11:48:06;100740.06;;;15.84;60.55
11525;BME280;5819;49.648;8.330;2023-04-19T11:50:41;100730.94;;;16.34;56.89
11525;BME280;5819;49.648;8.330;2023-04-19T11:53:11;100723.66;;;15.95;58.18
11525;BME280;5819;49.648;8.330;2023-04-19T11:55:48;100725.97;;;15.85;57.97
11525;BME280;5819;49.648;8.330;2023-04-19T11:58:25;100725.75;;;16.04;58.46
11525;BME280;5819;49.648;8.330;2023-04-19T12:00:55;100723.66;;;15.95;57.66
11525;BME280;5819;49.648;8.330;2023-04-19T12:03:24;100732.63;;;15.61;57.68
11525;BME280;5819;49.648;8.330;2023-04-19T12:05:54;100732.09;;;15.70;58.16
11525;BME280;5819;49.648;8.330;2023-04-19T12:08:30;100719.00;;;16.58;57.71
11525;BME280;5819;49.648;8.330;2023-04-19T12:11:00;100717.31;;;16.71;55.42
11525;BME280;5819;49.648;8.330;2023-04-19T12:13:29;100720.50;;;16.76;55.65
11525;BME280;5819;49.648;8.330;2023-04-19T12:15:58;100710.19;;;17.14;53.57
11525;BME280;5819;49.648;8.330;2023-04-19T12:18:26;100715.16;;;16.64;56.37
11525;BME280;5819;49.648;8.330;2023-04-19T12:20:54;100712.84;;;16.29;55.41
11525;BME280;5819;49.648;8.330;2023-04-19T12:23:25;100708.47;;;16.44;55.88
11525;BME280;5819;49.648;8.330;2023-04-19T12:25:53;100705.84;;;16.58;55.67
11525;BME280;5819;49.648;8.330;2023-04-19T12:28:22;100701.13;;;16.35;56.08
11525;BME280;5819;49.648;8.330;2023-04-19T12:30:51;100695.69;;;16.24;55.71
11525;BME280;5819;49.648;8.330;2023-04-19T12:33:21;100686.59;;;16.29;55.18
11525;BME280;5819;49.648;8.330;2023-04-19T12:35:52;100681.75;;;16.80;54.22
11525;BME280;5819;49.648;8.330;2023-04-19T12:38:21;100673.19;;;17.71;52.42
11525;BME280;5819;49.648;8.330;2023-04-19T12:40:50;100666.34;;;17.68;50.15
11525;BME280;5819;49.648;8.330;2023-04-19T12:43:18;100664.44;;;17.44;52.76
11525;BME280;5819;49.648;8.330;2023-04-19T12:45:48;100663.91;;;17.39;50.95
11525;BME280;5819;49.648;8.330;2023-04-19T12:48:16;100656.91;;;17.52;53.10
11525;BME280;5819;49.648;8.330;2023-04-19T12:50:45;100664.97;;;17.36;52.25
11525;BME280;5819;49.648;8.330;2023-04-19T12:53:13;100651.25;;;17.58;50.07
11525;BME280;5819;49.648;8.330;2023-04-19T12:55:41;100642.78;;;17.13;51.65
11525;BME280;5819;49.648;8.330;2023-04-19T12:58:13;100648.28;;;16.96;50.08
11525;BME280;5819;49.648;8.330;2023-04-19T13:00:41;100650.56;;;17.15;49.43
11525;BME280;5819;49.648;8.330;2023-04-19T13:03:10;100636.63;;;17.27;47.84
11525;BME280;5819;49.648;8.330;2023-04-19T13:05:39;100637.94;;;17.47;50.54
11525;BME280;5819;49.648;8.330;2023-04-19T13:08:07;100632.13;;;17.42;47.95
11525;BME280;5819;49.648;8.330;2023-04-19T13:10:35;100637.22;;;17.45;49.03
11525;BME280;5819;49.648;8.330;2023-04-19T13:13:04;100635.66;;;17.15;49.74
11525;BME280;5819;49.648;8.330;2023-04-19T13:15:32;100629.41;;;17.43;47.99
11525;BME280;5819;49.648;8.330;2023-04-19T13:18:00;100618.94;;;17.56;46.72